Time;durP1;ratioP1;P1;durP2;ratioP2;P2;SDS_P1;SDS_P2;PMS_P1;PMS_P2;Temp;Humidity;BMP_temperature;BMP_pressure;BME280_temperature;BME280_humidity;BME280_pressure;Samples;Min_cycle;Max_cycle;Signal;HPM_P1;HPM_P2
2022/11/25 00:00:30;;;;;;;;;;;;;;;37.68;nan;102267.69;5059788;28;19924;-59
2022/11/25 00:02:56;;;;;;;;;;;;;;;36.37;nan;102273.78;5065164;28;19931;-58
2022/11/25 00:05:24;;;;;;;;;;;;;;;37.29;nan;102262.25;5059827;28;20007;-58
2022/11/25 00:07:50;;;;;;;;;;;;;;;36.86;nan;102262.38;5069151;28;19920;-58
2022/11/25 00:10:16;;;;;;;;;;;;;;;38.26;nan;102262.47;5059729;28;19952;-59
2022/11/25 00:12:43;;;;;;;;;;;;;;;37.55;nan;102269.41;5065930;28;19921;-59
2022/11/25 00:15:09;;;;;;;;;;;;;;;38.02;nan;102276.41;5061396;28;19916;-58
2022/11/25 00:17:35;;;;;;;;;;;;;;;37.54;nan;102272.66;5060810;28;19924;-58
2022/11/25 00:20:04;;;;;;;;;;;;;;;37.97;nan;102273.22;5066460;28;19924;-59
2022/11/25 00:22:31;;;;;;;;;;;;;;;37.85;nan;102279.38;5063791;28;19971;-58
2022/11/25 00:24:57;;;;;;;;;;;;;;;37.18;nan;102284.97;5062195;28;19932;-59
2022/11/25 00:27:23;;;;;;;;;;;;;;;36.25;nan;102284.25;5095457;27;19925;-58
2022/11/25 00:29:50;;;;;;;;;;;;;;;37.00;nan;102283.41;5063403;28;20003;-59
2022/11/25 00:32:17;;;;;;;;;;;;;;;36.76;nan;102290.72;5058843;28;20011;-59
2022/11/25 00:34:43;;;;;;;;;;;;;;;36.98;nan;102285.81;5062375;28;19924;-58
2022/11/25 00:37:10;;;;;;;;;;;;;;;36.31;nan;102287.50;5063681;28;20298;-59
2022/11/25 00:39:37;;;;;;;;;;;;;;;36.33;nan;102295.63;5097054;27;19920;-58
2022/11/25 00:44:48;;;;;;;;;;;;;;;36.87;nan;102298.00;5059768;28;19939;-59
2022/11/25 00:47:15;;;;;;;;;;;;;;;36.60;nan;102308.94;5058508;28;19967;-58
2022/11/25 00:49:43;;;;;;;;;;;;;;;36.66;nan;102302.88;5062699;28;19974;-59
2022/11/25 00:52:12;;;;;;;;;;;;;;;35.30;nan;102308.22;5066535;28;19920;-58
2022/11/25 00:54:39;;;;;;;;;;;;;;;35.53;nan;102310.78;5060745;28;19924;-58
2022/11/25 00:57:05;;;;;;;;;;;;;;;35.71;nan;102314.47;5063529;28;19963;-59
2022/11/25 00:59:32;;;;;;;;;;;;;;;36.09;nan;102319.81;5065124;28;20008;-58
2022/11/25 01:01:59;;;;;;;;;;;;;;;35.68;nan;102323.75;5062887;28;20333;-58
2022/11/25 01:04:25;;;;;;;;;;;;;;;35.95;nan;102331.97;5074400;28;19921;-58
2022/11/25 01:06:53;;;;;;;;;;;;;;;35.83;nan;102323.81;5057695;28;19917;-59
2022/11/25 01:09:19;;;;;;;;;;;;;;;35.53;nan;102330.56;5063160;28;19921;-58
2022/11/25 01:11:45;;;;;;;;;;;;;;;35.32;nan;102327.63;5073138;28;20645;-58
2022/11/25 01:14:11;;;;;;;;;;;;;;;34.18;nan;102335.22;5103229;27;19943;-58
2022/11/25 01:16:38;;;;;;;;;;;;;;;34.61;nan;102344.91;5068019;28;19917;-59
2022/11/25 01:19:06;;;;;;;;;;;;;;;36.22;nan;102343.72;5063962;28;19925;-58
2022/11/25 01:21:33;;;;;;;;;;;;;;;36.33;nan;102340.94;5071074;28;19977;-58
2022/11/25 01:24:03;;;;;;;;;;;;;;;36.05;nan;102344.50;5062002;28;20023;-58
2022/11/25 01:26:30;;;;;;;;;;;;;;;36.10;nan;102347.75;5064793;28;20367;-59
2022/11/25 01:28:57;;;;;;;;;;;;;;;36.08;nan;102338.84;5066799;28;19929;-58
2022/11/25 01:31:24;;;;;;;;;;;;;;;35.64;nan;102351.22;5061838;28;19971;-58
2022/11/25 01:33:53;;;;;;;;;;;;;;;35.89;nan;102353.34;5060720;28;19924;-58
2022/11/25 01:36:19;;;;;;;;;;;;;;;35.56;nan;102355.25;5055745;28;19920;-58
2022/11/25 01:38:48;;;;;;;;;;;;;;;35.85;nan;102355.38;5057915;28;19959;-58
2022/11/25 01:41:15;;;;;;;;;;;;;;;35.68;nan;102363.34;5055966;28;20414;-58
2022/11/25 01:43:41;;;;;;;;;;;;;;;35.58;nan;102358.50;5059699;28;19993;-58
2022/11/25 01:46:17;;;;;;;;;;;;;;;34.84;nan;102370.13;5054687;28;20513;-58
2022/11/25 01:49:03;;;;;;;;;;;;;;;35.17;nan;102371.16;5098236;27;19921;-58
2022/11/25 01:51:39;;;;;;;;;;;;;;;35.45;nan;102362.88;5060640;28;19925;-58
2022/11/25 01:54:06;;;;;;;;;;;;;;;35.39;nan;102368.09;5072179;28;19920;-58
2022/11/25 01:56:36;;;;;;;;;;;;;;;35.17;nan;102371.97;5071867;28;19971;-58
2022/11/25 01:59:02;;;;;;;;;;;;;;;35.10;nan;102367.09;5087526;28;19936;-58
2022/11/25 02:01:29;;;;;;;;;;;;;;;34.87;nan;102380.66;5070419;28;19917;-61
2022/11/25 02:03:57;;;;;;;;;;;;;;;34.76;nan;102391.03;5073296;28;19943;-59
2022/11/25 02:06:23;;;;;;;;;;;;;;;34.23;nan;102388.50;5070585;28;20006;-59
2022/11/25 02:08:51;;;;;;;;;;;;;;;33.86;nan;102400.56;5063022;28;19926;-59
2022/11/25 02:11:18;;;;;;;;;;;;;;;33.19;nan;102399.59;5069688;28;19928;-61
2022/11/25 02:13:46;;;;;;;;;;;;;;;33.17;nan;102397.16;5071474;28;19931;-62
2022/11/25 02:16:12;;;;;;;;;;;;;;;32.45;nan;102405.56;5072926;28;19917;-59
2022/11/25 02:18:39;;;;;;;;;;;;;;;34.20;nan;102406.19;5070230;28;19928;-59
2022/11/25 02:21:06;;;;;;;;;;;;;;;34.69;nan;102411.56;5072706;28;20036;-59
2022/11/25 02:23:39;;;;;;;;;;;;;;;34.38;nan;102404.41;5075031;28;19928;-60
2022/11/25 02:26:08;;;;;;;;;;;;;;;33.14;nan;102414.00;5072154;28;19920;-60
2022/11/25 02:28:37;;;;;;;;;;;;;;;32.19;nan;102414.72;5069797;28;19999;-60
2022/11/25 02:31:08;;;;;;;;;;;;;;;32.72;nan;102420.56;5071309;28;19928;-60
2022/11/25 02:33:39;;;;;;;;;;;;;;;33.10;nan;102419.59;5103714;28;20024;-58
2022/11/25 02:36:12;;;;;;;;;;;;;;;31.98;nan;102431.16;5072172;28;19920;-59
2022/11/25 02:38:48;;;;;;;;;;;;;;;31.95;nan;102426.25;5068980;28;19925;-58
2022/11/25 02:41:20;;;;;;;;;;;;;;;32.94;nan;102427.38;5086874;28;19982;-59
2022/11/25 02:43:55;;;;;;;;;;;;;;;33.77;nan;102422.59;5087012;28;20010;-59
2022/11/25 02:46:23;;;;;;;;;;;;;;;33.60;nan;102432.44;5070533;28;19999;-59
2022/11/25 02:48:52;;;;;;;;;;;;;;;32.83;nan;102427.19;5071105;28;20284;-60
2022/11/25 02:51:22;;;;;;;;;;;;;;;32.63;nan;102423.59;5070454;28;19920;-58
2022/11/25 02:53:49;;;;;;;;;;;;;;;32.28;nan;102428.56;5089563;28;20449;-60
2022/11/25 02:56:18;;;;;;;;;;;;;;;33.06;nan;102430.00;5075589;28;19946;-60
2022/11/25 02:58:45;;;;;;;;;;;;;;;33.37;nan;102439.34;5076536;28;19921;-61
2022/11/25 03:01:11;;;;;;;;;;;;;;;32.58;nan;102445.63;5108290;27;19966;-59
2022/11/25 03:03:38;;;;;;;;;;;;;;;33.35;nan;102443.34;5073662;28;19924;-59
2022/11/25 03:06:07;;;;;;;;;;;;;;;33.47;nan;102447.16;5075217;28;19931;-60
2022/11/25 03:08:34;;;;;;;;;;;;;;;33.53;nan;102448.44;5075461;28;19920;-61
2022/11/25 03:11:05;;;;;;;;;;;;;;;33.41;nan;102440.22;5074051;28;19938;-60
2022/11/25 03:13:32;;;;;;;;;;;;;;;33.11;nan;102443.75;5054107;28;19938;-59
2022/11/25 03:15:58;;;;;;;;;;;;;;;33.38;nan;102452.25;5076548;28;19916;-60
2022/11/25 03:18:25;;;;;;;;;;;;;;;33.52;nan;102463.72;5079135;28;19920;-60
2022/11/25 03:20:52;;;;;;;;;;;;;;;34.30;nan;102466.81;5079413;28;19917;-61
2022/11/25 03:23:18;;;;;;;;;;;;;;;33.66;nan;102458.31;5078336;28;20375;-59
2022/11/25 03:25:45;;;;;;;;;;;;;;;32.64;nan;102463.81;5080741;28;20030;-60
2022/11/25 03:28:11;;;;;;;;;;;;;;;33.14;nan;102459.91;5094806;28;19956;-60
2022/11/25 03:30:38;;;;;;;;;;;;;;;32.91;nan;102468.38;5077384;28;19916;-59
2022/11/25 03:33:05;;;;;;;;;;;;;;;32.83;nan;102472.25;5079052;28;19921;-60
2022/11/25 03:35:31;;;;;;;;;;;;;;;32.54;nan;102476.53;5078273;28;19962;-59
2022/11/25 03:37:57;;;;;;;;;;;;;;;33.73;nan;102480.13;5078157;28;19931;-59
2022/11/25 03:40:24;;;;;;;;;;;;;;;33.80;nan;102486.72;5076702;28;19916;-59
2022/11/25 03:42:51;;;;;;;;;;;;;;;33.47;nan;102476.16;5076230;28;19928;-60
2022/11/25 03:45:18;;;;;;;;;;;;;;;32.81;nan;102485.09;5077292;28;19920;-62
2022/11/25 03:47:46;;;;;;;;;;;;;;;33.03;nan;102492.72;5075151;28;19997;-60
2022/11/25 03:50:13;;;;;;;;;;;;;;;33.41;nan;102500.25;5078855;28;19977;-59
2022/11/25 03:52:39;;;;;;;;;;;;;;;33.29;nan;102509.66;5077821;28;19920;-59
2022/11/25 03:55:08;;;;;;;;;;;;;;;33.24;nan;102507.19;5082274;28;19931;-59
2022/11/25 03:57:36;;;;;;;;;;;;;;;33.55;nan;102496.81;5080034;28;20022;-60
2022/11/25 04:00:03;;;;;;;;;;;;;;;33.53;nan;102499.19;5075515;28;19927;-60
2022/11/25 04:02:45;;;;;;;;;;;;;;;32.62;nan;102506.44;5074398;28;20007;-59
2022/11/25 04:05:14;;;;;;;;;;;;;;;33.15;nan;102512.25;5072510;28;19920;-59
2022/11/25 04:07:41;;;;;;;;;;;;;;;33.07;nan;102515.34;5076691;28;21169;-59
2022/11/25 04:10:08;;;;;;;;;;;;;;;33.25;nan;102517.25;5058826;28;19929;-59
2022/11/25 04:12:46;;;;;;;;;;;;;;;33.17;nan;102521.13;5076325;28;20361;-60
2022/11/25 04:15:19;;;;;;;;;;;;;;;33.11;nan;102521.84;5094536;28;19921;-60
2022/11/25 04:17:51;;;;;;;;;;;;;;;33.07;nan;102526.59;5089947;28;19920;-59
2022/11/25 04:20:17;;;;;;;;;;;;;;;33.12;nan;102520.66;5074819;28;19928;-60
2022/11/25 04:22:49;;;;;;;;;;;;;;;33.14;nan;102526.72;5077069;28;19917;-60
2022/11/25 04:25:17;;;;;;;;;;;;;;;32.86;nan;102524.22;5077062;28;19929;-60
2022/11/25 04:27:43;;;;;;;;;;;;;;;32.97;nan;102522.41;5078581;28;19912;-59
2022/11/25 04:30:11;;;;;;;;;;;;;;;32.94;nan;102523.16;5078272;28;19921;-59
2022/11/25 04:32:40;;;;;;;;;;;;;;;32.63;nan;102535.41;5077027;28;20380;-59
2022/11/25 04:35:08;;;;;;;;;;;;;;;32.65;nan;102533.84;5059862;28;19986;-59
2022/11/25 04:37:35;;;;;;;;;;;;;;;32.69;nan;102534.75;5078673;28;20386;-59
2022/11/25 04:40:01;;;;;;;;;;;;;;;32.44;nan;102544.69;5076917;28;19924;-60
2022/11/25 04:42:33;;;;;;;;;;;;;;;32.33;nan;102538.03;5078042;28;20386;-59
2022/11/25 04:45:07;;;;;;;;;;;;;;;32.34;nan;102539.66;5090363;28;20009;-59
2022/11/25 04:47:33;;;;;;;;;;;;;;;32.12;nan;102541.97;5078182;28;19939;-60
2022/11/25 04:49:59;;;;;;;;;;;;;;;32.40;nan;102536.16;5076133;28;19917;-59
2022/11/25 04:52:26;;;;;;;;;;;;;;;32.37;nan;102539.72;5080007;28;19920;-59
2022/11/25 04:54:53;;;;;;;;;;;;;;;32.40;nan;102540.97;5078483;28;19921;-59
2022/11/25 04:57:19;;;;;;;;;;;;;;;32.95;nan;102542.50;5077970;28;19924;-59
2022/11/25 04:59:46;;;;;;;;;;;;;;;32.46;nan;102543.13;5093001;28;19924;-59
2022/11/25 05:02:18;;;;;;;;;;;;;;;32.40;nan;102546.63;5094246;28;20337;-59
2022/11/25 05:04:55;;;;;;;;;;;;;;;32.61;nan;102549.84;5075347;28;19928;-59
2022/11/25 05:07:23;;;;;;;;;;;;;;;32.92;nan;102550.88;5090330;28;19970;-59
2022/11/25 05:09:51;;;;;;;;;;;;;;;32.11;nan;102543.16;5080743;28;19916;-59
2022/11/25 05:12:28;;;;;;;;;;;;;;;32.68;nan;102541.56;5072756;28;20602;-58
2022/11/25 05:14:55;;;;;;;;;;;;;;;32.72;nan;102544.44;5074681;28;19931;-59
2022/11/25 05:17:23;;;;;;;;;;;;;;;32.57;nan;102545.34;5072097;28;20302;-59
2022/11/25 05:19:50;;;;;;;;;;;;;;;32.85;nan;102547.91;5080056;28;20394;-58
2022/11/25 05:22:21;;;;;;;;;;;;;;;32.90;nan;102556.91;5077586;28;19927;-58
2022/11/25 05:24:48;;;;;;;;;;;;;;;32.62;nan;102557.13;5078301;28;19924;-57
2022/11/25 05:27:15;;;;;;;;;;;;;;;32.70;nan;102561.72;5076458;28;19964;-59
2022/11/25 05:29:41;;;;;;;;;;;;;;;32.64;nan;102551.91;5079066;28;19959;-57
2022/11/25 05:32:09;;;;;;;;;;;;;;;32.58;nan;102556.22;5072829;28;19927;-57
2022/11/25 05:34:36;;;;;;;;;;;;;;;32.76;nan;102563.03;5071923;28;19997;-58
2022/11/25 05:37:02;;;;;;;;;;;;;;;32.86;nan;102566.47;5073209;28;19928;-58
2022/11/25 05:39:31;;;;;;;;;;;;;;;32.74;nan;102558.97;5072798;28;20018;-58
2022/11/25 05:42:15;;;;;;;;;;;;;;;32.45;nan;102566.81;5071823;28;19939;-58
2022/11/25 05:44:42;;;;;;;;;;;;;;;32.01;nan;102571.06;5070707;28;19921;-58
2022/11/25 05:47:09;;;;;;;;;;;;;;;32.15;nan;102569.38;5071625;28;20372;-58
2022/11/25 05:49:37;;;;;;;;;;;;;;;31.32;nan;102570.56;5071051;28;19920;-58
2022/11/25 05:52:03;;;;;;;;;;;;;;;31.28;nan;102578.09;5072265;28;19939;-59
2022/11/25 05:54:38;;;;;;;;;;;;;;;31.71;nan;102579.16;5068941;28;21416;-59
2022/11/25 05:57:05;;;;;;;;;;;;;;;30.87;nan;102582.97;5070806;28;19999;-58
2022/11/25 05:59:38;;;;;;;;;;;;;;;31.36;nan;102584.72;5070897;28;19921;-58
2022/11/25 06:02:13;;;;;;;;;;;;;;;30.64;nan;102584.72;5085867;28;19925;-58
2022/11/25 06:04:40;;;;;;;;;;;;;;;30.91;nan;102585.91;5070237;28;19928;-58
2022/11/25 06:07:07;;;;;;;;;;;;;;;30.54;nan;102599.25;5076555;28;19920;-58
2022/11/25 06:09:34;;;;;;;;;;;;;;;29.95;nan;102588.59;5076805;28;19977;-58
2022/11/25 06:12:00;;;;;;;;;;;;;;;30.24;nan;102574.31;5079021;28;19939;-58
2022/11/25 06:14:27;;;;;;;;;;;;;;;29.81;nan;102582.53;5076341;28;19921;-58
2022/11/25 06:16:54;;;;;;;;;;;;;;;30.58;nan;102588.94;5074451;28;20278;-58
2022/11/25 06:19:24;;;;;;;;;;;;;;;30.31;nan;102591.34;5074937;28;19925;-58
2022/11/25 06:21:51;;;;;;;;;;;;;;;30.25;nan;102592.78;5095082;28;19973;-58
2022/11/25 06:24:17;;;;;;;;;;;;;;;30.31;nan;102591.34;5076350;28;19943;-58
2022/11/25 06:26:46;;;;;;;;;;;;;;;30.36;nan;102593.13;5075853;28;19927;-58
2022/11/25 06:29:12;;;;;;;;;;;;;;;30.73;nan;102593.81;5077253;28;19921;-58
2022/11/25 06:31:41;;;;;;;;;;;;;;;30.43;nan;102598.09;5076860;28;19935;-58
2022/11/25 06:34:45;;;;;;;;;;;;;;;30.08;nan;102593.03;5080991;28;19927;-57
2022/11/25 06:37:35;;;;;;;;;;;;;;;30.21;nan;102591.88;5068926;28;20302;-60
2022/11/25 06:40:01;;;;;;;;;;;;;;;29.83;nan;102599.81;5075250;28;19944;-58
2022/11/25 06:42:27;;;;;;;;;;;;;;;30.34;nan;102590.66;5075657;28;19950;-58
2022/11/25 06:44:53;;;;;;;;;;;;;;;30.38;nan;102591.59;5076514;28;19925;-58
2022/11/25 06:47:20;;;;;;;;;;;;;;;30.50;nan;102592.69;5077307;28;19921;-57
2022/11/25 06:49:46;;;;;;;;;;;;;;;30.60;nan;102598.63;5072516;28;20011;-59
2022/11/25 06:52:12;;;;;;;;;;;;;;;30.64;nan;102588.34;5079245;28;19920;-58
2022/11/25 06:54:40;;;;;;;;;;;;;;;30.63;nan;102585.91;5076579;28;19966;-58
2022/11/25 06:57:09;;;;;;;;;;;;;;;30.62;nan;102584.28;5081409;28;19977;-59
2022/11/25 06:59:36;;;;;;;;;;;;;;;30.43;nan;102582.09;5084663;28;19982;-58
2022/11/25 07:02:03;;;;;;;;;;;;;;;30.42;nan;102579.66;5084239;28;19924;-58
2022/11/25 07:04:29;;;;;;;;;;;;;;;30.31;nan;102585.75;5084796;28;19920;-59
2022/11/25 07:06:55;;;;;;;;;;;;;;;30.27;nan;102573.59;5077072;28;19916;-58
2022/11/25 07:09:22;;;;;;;;;;;;;;;30.31;nan;102570.91;5074542;28;19942;-59
2022/11/25 07:11:48;;;;;;;;;;;;;;;30.07;nan;102566.19;5078197;28;19923;-59
2022/11/25 07:14:15;;;;;;;;;;;;;;;30.21;nan;102563.81;5075742;28;19920;-59
2022/11/25 07:16:43;;;;;;;;;;;;;;;30.38;nan;102569.13;5077192;28;20045;-58
2022/11/25 07:19:10;;;;;;;;;;;;;;;30.32;nan;102567.72;5076338;28;19920;-59
2022/11/25 07:21:36;;;;;;;;;;;;;;;30.16;nan;102572.44;5079322;28;20286;-58
2022/11/25 07:24:04;;;;;;;;;;;;;;;29.78;nan;102568.03;5075429;28;19927;-58
2022/11/25 07:26:31;;;;;;;;;;;;;;;29.91;nan;102574.47;5078678;28;20298;-59
2022/11/25 07:28:59;;;;;;;;;;;;;;;29.97;nan;102569.41;5076330;28;19993;-57
2022/11/25 07:31:29;;;;;;;;;;;;;;;30.06;nan;102567.34;5074823;28;20290;-58
2022/11/25 07:33:57;;;;;;;;;;;;;;;29.98;nan;102562.63;5079419;28;20010;-58
2022/11/25 07:36:23;;;;;;;;;;;;;;;29.54;nan;102568.06;5075486;28;19973;-57
2022/11/25 07:38:50;;;;;;;;;;;;;;;30.20;nan;102556.56;5085471;28;19923;-56
2022/11/25 07:41:17;;;;;;;;;;;;;;;30.06;nan;102556.94;5079892;28;20275;-56
2022/11/25 07:43:45;;;;;;;;;;;;;;;29.91;nan;102559.63;5092264;28;19921;-56
2022/11/25 07:46:21;;;;;;;;;;;;;;;29.45;nan;102556.13;5081766;28;19923;-57
2022/11/25 07:48:48;;;;;;;;;;;;;;;29.67;nan;102544.47;5083051;28;19928;-57
2022/11/25 07:51:17;;;;;;;;;;;;;;;29.96;nan;102550.97;5091229;28;19926;-58
2022/11/25 07:53:44;;;;;;;;;;;;;;;29.27;nan;102557.50;5079723;28;19920;-58
2022/11/25 07:56:10;;;;;;;;;;;;;;;29.90;nan;102560.78;5088980;28;20423;-58
2022/11/25 07:58:37;;;;;;;;;;;;;;;29.89;nan;102556.34;5085591;28;19942;-58
2022/11/25 08:01:04;;;;;;;;;;;;;;;30.36;nan;102549.03;5090893;28;19916;-57
2022/11/25 08:03:34;;;;;;;;;;;;;;;30.35;nan;102547.41;5079082;28;20484;-57
2022/11/25 08:06:01;;;;;;;;;;;;;;;30.46;nan;102553.31;5087741;28;19919;-58
2022/11/25 08:08:28;;;;;;;;;;;;;;;30.20;nan;102547.34;5085183;28;20276;-57
2022/11/25 08:10:54;;;;;;;;;;;;;;;30.22;nan;102543.00;5088226;28;19927;-57
2022/11/25 08:13:20;;;;;;;;;;;;;;;29.96;nan;102546.16;5078624;28;20011;-57
2022/11/25 08:15:47;;;;;;;;;;;;;;;29.56;nan;102554.50;5062359;28;20298;-57
2022/11/25 08:18:13;;;;;;;;;;;;;;;29.77;nan;102546.78;5088257;28;19924;-57
2022/11/25 08:20:39;;;;;;;;;;;;;;;29.95;nan;102538.13;5085757;28;19988;-57
2022/11/25 08:23:06;;;;;;;;;;;;;;;29.77;nan;102537.56;5080581;28;19928;-57
2022/11/25 08:25:32;;;;;;;;;;;;;;;29.62;nan;102541.06;5090479;28;20294;-57
2022/11/25 08:27:58;;;;;;;;;;;;;;;29.50;nan;102544.72;5080352;28;19930;-57
2022/11/25 08:30:25;;;;;;;;;;;;;;;29.47;nan;102548.22;5086019;28;20329;-58
2022/11/25 08:32:52;;;;;;;;;;;;;;;28.54;nan;102553.28;5087210;28;20026;-57
2022/11/25 08:35:19;;;;;;;;;;;;;;;29.00;nan;102542.97;5078320;28;20015;-56
2022/11/25 08:37:45;;;;;;;;;;;;;;;29.27;nan;102546.31;5124292;27;19982;-56
2022/11/25 08:40:12;;;;;;;;;;;;;;;29.37;nan;102552.25;5081771;28;19917;-56
2022/11/25 08:42:38;;;;;;;;;;;;;;;29.38;nan;102553.06;5083776;28;19955;-56
2022/11/25 08:45:05;;;;;;;;;;;;;;;29.33;nan;102556.09;5088822;28;19977;-56
2022/11/25 08:47:32;;;;;;;;;;;;;;;29.10;nan;102555.72;5077977;28;19920;-56
2022/11/25 08:49:58;;;;;;;;;;;;;;;29.34;nan;102546.53;5088965;28;19977;-57
2022/11/25 08:52:25;;;;;;;;;;;;;;;29.33;nan;102551.31;5083169;28;20050;-57
2022/11/25 08:54:51;;;;;;;;;;;;;;;29.18;nan;102552.81;5081796;28;19924;-57
2022/11/25 08:57:17;;;;;;;;;;;;;;;29.24;nan;102555.38;5090632;28;20183;-56
2022/11/25 08:59:44;;;;;;;;;;;;;;;29.84;nan;102551.00;5077678;28;19916;-57
2022/11/25 09:02:11;;;;;;;;;;;;;;;29.74;nan;102549.47;5087443;28;19921;-58
2022/11/25 09:04:38;;;;;;;;;;;;;;;29.59;nan;102553.00;5082473;28;19927;-57
2022/11/25 09:07:04;;;;;;;;;;;;;;;29.74;nan;102555.91;5088631;28;19966;-57
2022/11/25 09:09:30;;;;;;;;;;;;;;;29.75;nan;102540.72;5077415;28;19920;-57
2022/11/25 09:11:57;;;;;;;;;;;;;;;29.67;nan;102536.06;5089265;28;19920;-57
2022/11/25 09:14:23;;;;;;;;;;;;;;;29.58;nan;102540.97;5082558;28;19923;-57
2022/11/25 09:16:49;;;;;;;;;;;;;;;29.57;nan;102536.53;5081592;28;19924;-57
2022/11/25 09:19:15;;;;;;;;;;;;;;;29.29;nan;102536.38;5080720;28;19978;-57
2022/11/25 09:21:42;;;;;;;;;;;;;;;29.23;nan;102545.34;5090520;28;20015;-58
2022/11/25 09:24:08;;;;;;;;;;;;;;;29.24;nan;102535.78;5080402;28;19966;-58
2022/11/25 09:26:38;;;;;;;;;;;;;;;29.18;nan;102533.22;5083398;28;19921;-57
2022/11/25 09:29:04;;;;;;;;;;;;;;;29.14;nan;102543.47;5088199;28;19920;-58
2022/11/25 09:31:30;;;;;;;;;;;;;;;29.01;nan;102533.41;5077026;28;20015;-57
2022/11/25 09:33:57;;;;;;;;;;;;;;;29.06;nan;102530.38;5088734;28;19959;-57
2022/11/25 09:36:24;;;;;;;;;;;;;;;28.97;nan;102531.66;5081998;28;20394;-57
2022/11/25 09:38:50;;;;;;;;;;;;;;;28.98;nan;102545.31;5079667;28;20301;-57
2022/11/25 09:47:07;;;;;;;;;;;;;;;29.07;nan;102532.03;5078844;28;19920;-57
2022/11/25 09:49:33;;;;;;;;;;;;;;;29.27;nan;102529.50;5089936;28;19916;-56
2022/11/25 09:52:11;;;;;;;;;;;;;;;29.15;nan;102530.28;5073022;28;19928;-56
2022/11/25 09:54:47;;;;;;;;;;;;;;;29.09;nan;102526.91;5072962;28;20267;-57
2022/11/25 09:57:13;;;;;;;;;;;;;;;29.04;nan;102527.13;5073281;28;19924;-57
2022/11/25 09:59:45;;;;;;;;;;;;;;;28.93;nan;102525.94;5073131;28;19923;-56
2022/11/25 10:02:20;;;;;;;;;;;;;;;28.54;nan;102519.72;5072839;28;19916;-56
2022/11/25 10:04:52;;;;;;;;;;;;;;;28.54;nan;102525.31;5069298;28;19967;-57
2022/11/25 10:07:27;;;;;;;;;;;;;;;28.66;nan;102526.53;5069278;28;19928;-57
2022/11/25 10:09:55;;;;;;;;;;;;;;;28.78;nan;102524.59;5057549;28;19927;-57
2022/11/25 10:12:27;;;;;;;;;;;;;;;28.92;nan;102529.91;5072994;28;19924;-56
2022/11/25 10:14:59;;;;;;;;;;;;;;;28.85;nan;102533.22;5072764;28;19924;-56
2022/11/25 10:17:32;;;;;;;;;;;;;;;28.69;nan;102525.84;5072932;28;19920;-56
2022/11/25 10:20:06;;;;;;;;;;;;;;;28.86;nan;102532.09;5072927;28;20054;-58
2022/11/25 10:22:34;;;;;;;;;;;;;;;28.98;nan;102534.13;5072656;28;20365;-58
2022/11/25 10:25:20;;;;;;;;;;;;;;;28.96;nan;102535.63;5072683;28;19923;-58
2022/11/25 10:27:46;;;;;;;;;;;;;;;28.92;nan;102532.72;5056233;28;19948;-57
2022/11/25 10:30:13;;;;;;;;;;;;;;;28.92;nan;102535.50;5072965;28;20039;-58
2022/11/25 10:32:42;;;;;;;;;;;;;;;28.93;nan;102533.53;5072727;28;19926;-58
2022/11/25 10:35:20;;;;;;;;;;;;;;;28.90;nan;102535.00;5064937;28;19921;-58
2022/11/25 10:37:49;;;;;;;;;;;;;;;28.78;nan;102533.00;5072778;28;19951;-58
2022/11/25 10:40:16;;;;;;;;;;;;;;;29.06;nan;102544.38;5072724;28;20290;-58
2022/11/25 10:42:43;;;;;;;;;;;;;;;29.02;nan;102540.66;5065326;28;20032;-58
2022/11/25 10:45:09;;;;;;;;;;;;;;;29.05;nan;102542.75;5072709;28;20318;-59
2022/11/25 10:47:35;;;;;;;;;;;;;;;28.93;nan;102544.72;5072650;28;20323;-58
2022/11/25 10:50:08;;;;;;;;;;;;;;;28.88;nan;102545.75;5071374;28;19921;-58
2022/11/25 10:52:37;;;;;;;;;;;;;;;28.69;nan;102545.41;5082447;28;20078;-58
2022/11/25 10:55:11;;;;;;;;;;;;;;;28.59;nan;102546.69;5087122;28;19936;-58
2022/11/25 10:57:38;;;;;;;;;;;;;;;28.76;nan;102548.50;5076049;28;19974;-58
2022/11/25 11:00:05;;;;;;;;;;;;;;;28.78;nan;102537.78;5086878;28;19912;-56
2022/11/25 11:02:34;;;;;;;;;;;;;;;28.94;nan;102541.56;5080875;28;19923;-56
2022/11/25 11:05:02;;;;;;;;;;;;;;;29.21;nan;102542.91;5078591;28;19917;-56
2022/11/25 11:07:33;;;;;;;;;;;;;;;29.14;nan;102545.47;5089439;28;19924;-57
2022/11/25 11:10:18;;;;;;;;;;;;;;;29.00;nan;102542.97;5074337;28;19920;-57
2022/11/25 11:12:58;;;;;;;;;;;;;;;29.17;nan;102539.16;5072155;28;19928;-57
2022/11/25 11:15:26;;;;;;;;;;;;;;;28.97;nan;102538.09;5092823;28;19920;-56
2022/11/25 11:17:53;;;;;;;;;;;;;;;29.27;nan;102546.31;5080923;28;19922;-57
2022/11/25 11:20:29;;;;;;;;;;;;;;;29.13;nan;102547.44;5088253;28;19924;-57
2022/11/25 11:23:11;;;;;;;;;;;;;;;29.04;nan;102551.50;5089440;28;19920;-57
2022/11/25 11:25:38;;;;;;;;;;;;;;;28.57;nan;102547.03;5079448;28;19928;-57
2022/11/25 11:28:24;;;;;;;;;;;;;;;29.06;nan;102552.78;5090131;28;19916;-57
2022/11/25 11:31:17;;;;;;;;;;;;;;;29.13;nan;102550.25;5088483;28;19919;-57
2022/11/25 11:33:46;;;;;;;;;;;;;;;28.92;nan;102545.88;5074878;28;19920;-57
2022/11/25 11:36:20;;;;;;;;;;;;;;;28.88;nan;102548.53;5082659;28;19920;-57
2022/11/25 11:38:52;;;;;;;;;;;;;;;28.83;nan;102548.72;5091333;28;19922;-57
2022/11/25 11:41:33;;;;;;;;;;;;;;;28.88;nan;102552.16;5079522;28;19931;-57
2022/11/25 11:44:17;;;;;;;;;;;;;;;28.76;nan;102554.09;5081204;28;20019;-57
2022/11/25 11:46:49;;;;;;;;;;;;;;;28.76;nan;102559.69;5084304;28;19921;-57
2022/11/25 11:49:28;;;;;;;;;;;;;;;28.68;nan;102554.97;5091846;28;20279;-57
2022/11/25 11:52:03;;;;;;;;;;;;;;;28.81;nan;102568.66;5080243;28;19978;-57
2022/11/25 11:54:30;;;;;;;;;;;;;;;28.50;nan;102552.34;5085836;28;19920;-57
2022/11/25 11:56:59;;;;;;;;;;;;;;;28.54;nan;102564.47;5088842;28;19927;-57
2022/11/25 11:59:31;;;;;;;;;;;;;;;28.68;nan;102561.38;5078948;28;19927;-57
2022/11/25 12:02:17;;;;;;;;;;;;;;;28.55;nan;102559.72;5090082;28;19931;-57
2022/11/25 12:05:00;;;;;;;;;;;;;;;28.56;nan;102566.94;5083538;28;19927;-57
2022/11/25 12:07:26;;;;;;;;;;;;;;;28.59;nan;102571.84;5092121;28;20390;-57
2022/11/25 12:10:02;;;;;;;;;;;;;;;28.72;nan;102570.72;5079807;28;19920;-57
2022/11/25 12:12:39;;;;;;;;;;;;;;;28.24;nan;102572.13;5086039;28;19927;-58
2022/11/25 12:15:14;;;;;;;;;;;;;;;28.63;nan;102571.97;5089846;28;20019;-57
2022/11/25 12:17:50;;;;;;;;;;;;;;;29.12;nan;102575.81;5078417;28;19924;-57
2022/11/25 12:20:30;;;;;;;;;;;;;;;27.69;nan;102575.91;5087625;28;19927;-57
2022/11/25 12:23:02;;;;;;;;;;;;;;;28.83;nan;102582.31;5088355;28;20316;-57
2022/11/25 12:25:36;;;;;;;;;;;;;;;29.30;nan;102573.63;5076933;28;20052;-58
2022/11/25 12:28:10;;;;;;;;;;;;;;;28.50;nan;102571.91;5089565;28;19920;-57
2022/11/25 12:30:59;;;;;;;;;;;;;;;28.92;nan;102582.28;5085230;28;19916;-57
2022/11/25 12:33:28;;;;;;;;;;;;;;;28.90;nan;102585.41;5072700;28;19920;-57
2022/11/25 12:35:55;;;;;;;;;;;;;;;28.67;nan;102589.72;5086478;28;19939;-57
2022/11/25 12:38:25;;;;;;;;;;;;;;;29.34;nan;102591.34;5086457;28;19927;-57
2022/11/25 12:41:00;;;;;;;;;;;;;;;29.21;nan;102592.50;5087083;28;19920;-57
2022/11/25 12:43:26;;;;;;;;;;;;;;;29.19;nan;102595.63;5078168;28;20290;-57
2022/11/25 12:46:24;;;;;;;;;;;;;;;29.50;nan;102592.34;5090461;28;20335;-57
2022/11/25 12:48:52;;;;;;;;;;;;;;;29.85;nan;102594.69;5063705;28;19979;-56
2022/11/25 12:51:25;;;;;;;;;;;;;;;29.58;nan;102597.00;5077960;28;19968;-57
2022/11/25 12:54:00;;;;;;;;;;;;;;;29.50;nan;102599.94;5042903;28;19970;-57
2022/11/25 12:56:38;;;;;;;;;;;;;;;29.66;nan;102607.31;5064923;28;20019;-58
2022/11/25 12:59:34;;;;;;;;;;;;;;;29.83;nan;102605.44;5074262;28;20313;-58
2022/11/25 13:02:16;;;;;;;;;;;;;;;29.97;nan;102603.06;5046360;28;20010;-58
2022/11/25 13:04:48;;;;;;;;;;;;;;;29.81;nan;102605.78;5070973;28;19974;-58
2022/11/25 13:07:38;;;;;;;;;;;;;;;29.60;nan;102611.47;5069845;28;19927;-58
2022/11/25 13:10:23;;;;;;;;;;;;;;;29.47;nan;102612.66;5043279;28;19928;-58
2022/11/25 13:13:06;;;;;;;;;;;;;;;29.57;nan;102617.78;5073859;28;19924;-57
2022/11/25 13:15:37;;;;;;;;;;;;;;;29.65;nan;102618.84;5060319;28;19924;-58
2022/11/25 13:18:11;;;;;;;;;;;;;;;29.56;nan;102626.53;5073843;28;19951;-58